createdAt,value
2017-11-11T00:00:08.237Z,100684.82
2017-11-11T00:02:35.083Z,100685.14
2017-11-11T00:05:02.685Z,100690.66
2017-11-11T00:07:29.549Z,100688.00
2017-11-11T00:09:56.413Z,100685.49
2017-11-11T00:12:23.372Z,100690.61
2017-11-11T00:14:50.190Z,100684.70
2017-11-11T00:17:17.173Z,100685.34
2017-11-11T00:19:44.079Z,100691.84
2017-11-11T00:22:10.937Z,100683.16
2017-11-11T00:24:38.028Z,100679.31
2017-11-11T00:27:05.706Z,100677.52
2017-11-11T00:29:32.778Z,100685.20
2017-11-11T00:31:59.637Z,100680.02
2017-11-11T00:34:27.247Z,100674.70
2017-11-11T00:36:54.969Z,100678.38
2017-11-11T00:39:21.855Z,100669.84
2017-11-11T00:41:48.730Z,100685.80
2017-11-11T00:44:15.577Z,100699.13
2017-11-11T00:46:42.450Z,100694.13
2017-11-11T00:49:09.305Z,100694.63
2017-11-11T00:51:36.142Z,100676.12
2017-11-11T00:54:04.943Z,100681.26
2017-11-11T00:56:31.750Z,100678.51
2017-11-11T00:58:58.599Z,100676.78
2017-11-11T01:01:25.500Z,100674.02
2017-11-11T01:03:52.362Z,100674.85
2017-11-11T01:06:20.260Z,100659.89
2017-11-11T01:08:47.224Z,100662.91
2017-11-11T01:11:14.883Z,100651.17
2017-11-11T01:16:22.991Z,100641.97
2017-11-11T01:19:10.085Z,100638.62
2017-11-11T01:21:37.122Z,100639.36
2017-11-11T01:24:04.047Z,100634.19
2017-11-11T01:26:30.987Z,100637.82
2017-11-11T01:28:57.872Z,100636.14
2017-11-11T01:31:24.795Z,100644.04
2017-11-11T01:33:51.723Z,100627.31
2017-11-11T01:36:18.694Z,100632.73
2017-11-11T01:38:45.656Z,100634.03
2017-11-11T01:41:12.637Z,100627.23
2017-11-11T01:43:39.647Z,100634.04
2017-11-11T01:46:06.561Z,100624.92
2017-11-11T01:48:33.541Z,100619.30
2017-11-11T01:51:00.513Z,100612.92
2017-11-11T01:53:27.450Z,100615.77
2017-11-11T01:55:54.460Z,100608.42
2017-11-11T01:58:21.541Z,100605.11
2017-11-11T02:00:48.520Z,100593.33
2017-11-11T02:03:15.490Z,100592.19
2017-11-11T02:05:42.491Z,100582.05
2017-11-11T02:08:09.479Z,100583.44
2017-11-11T02:10:36.455Z,100589.53
2017-11-11T02:13:03.486Z,100578.53
2017-11-11T02:15:31.123Z,100584.94
2017-11-11T02:17:58.073Z,100582.97
2017-11-11T02:20:25.041Z,100584.52
2017-11-11T02:22:52.762Z,100585.73
2017-11-11T02:25:19.796Z,100582.27
2017-11-11T02:27:46.759Z,100579.28
2017-11-11T02:30:13.948Z,100581.38
2017-11-11T02:32:40.994Z,100580.48
2017-11-11T02:35:08.747Z,100574.55
2017-11-11T02:37:36.472Z,100571.32
2017-11-11T02:40:03.418Z,100568.66
2017-11-11T02:42:30.420Z,100565.03
2017-11-11T02:44:57.409Z,100562.97
2017-11-11T02:47:24.502Z,100557.90
2017-11-11T02:49:52.199Z,100555.70
2017-11-11T02:52:19.185Z,100554.00
2017-11-11T02:54:46.363Z,100551.33
2017-11-11T02:57:13.277Z,100560.36
2017-11-11T02:59:40.225Z,100545.20
2017-11-11T03:02:07.124Z,100543.97
2017-11-11T03:04:34.083Z,100538.80
2017-11-11T03:07:00.995Z,100535.98
2017-11-11T03:09:27.975Z,100528.47
2017-11-11T03:11:54.981Z,100529.31
2017-11-11T03:14:21.944Z,100520.58
2017-11-11T03:16:48.898Z,100518.98
2017-11-11T03:19:15.812Z,100517.00
2017-11-11T03:21:42.786Z,100518.83
2017-11-11T03:24:09.694Z,100518.13
2017-11-11T03:26:36.638Z,100521.39
2017-11-11T03:29:03.637Z,100524.23
2017-11-11T03:31:30.527Z,100517.95
2017-11-11T03:33:57.418Z,100507.84
2017-11-11T03:36:24.429Z,100498.64
2017-11-11T03:38:52.057Z,100505.58
2017-11-11T03:41:18.992Z,100507.38
2017-11-11T03:43:45.891Z,100495.80
2017-11-11T03:46:12.820Z,100495.60
2017-11-11T03:48:39.733Z,100508.31
2017-11-11T03:51:06.670Z,100502.16
2017-11-11T03:53:33.570Z,100497.30
2017-11-11T03:56:00.531Z,100508.03
2017-11-11T03:58:27.447Z,100500.77
2017-11-11T04:00:54.328Z,100498.80
2017-11-11T04:03:21.228Z,100496.91
2017-11-11T04:05:48.149Z,100504.56
2017-11-11T04:08:15.066Z,100506.29
2017-11-11T04:10:41.963Z,100497.55
2017-11-11T04:13:08.880Z,100493.23
2017-11-11T04:15:35.803Z,100494.12
2017-11-11T04:18:02.740Z,100488.28
2017-11-11T04:20:29.666Z,100492.23
2017-11-11T04:22:56.598Z,100490.33
2017-11-11T04:25:23.503Z,100478.16
2017-11-11T04:27:50.401Z,100476.27
2017-11-11T04:30:17.348Z,100474.47
2017-11-11T04:32:44.275Z,100470.97
2017-11-11T04:35:11.977Z,100467.16
2017-11-11T04:37:38.875Z,100465.05
2017-11-11T04:40:06.557Z,100458.55
2017-11-11T04:42:33.701Z,100456.44
2017-11-11T04:45:00.611Z,100452.81
2017-11-11T04:47:27.515Z,100453.23
2017-11-11T04:49:54.454Z,100440.11
2017-11-11T04:52:21.387Z,100444.28
2017-11-11T04:54:48.404Z,100438.08
2017-11-11T04:57:15.371Z,100436.03
2017-11-11T04:59:42.343Z,100432.81
2017-11-11T05:02:09.274Z,100428.95
2017-11-11T05:04:36.274Z,100430.56
2017-11-11T05:07:03.247Z,100428.73
2017-11-11T05:09:30.202Z,100428.53
2017-11-11T05:11:57.139Z,100426.69
2017-11-11T05:14:24.871Z,100428.23
2017-11-11T05:16:51.786Z,100417.72
2017-11-11T05:19:18.695Z,100424.34
2017-11-11T05:21:46.199Z,100417.95
2017-11-11T05:24:13.268Z,100412.67
2017-11-11T05:26:40.204Z,100412.98
2017-11-11T05:29:07.179Z,100418.09
2017-11-11T05:31:34.868Z,100414.37
2017-11-11T05:34:01.772Z,100409.61
2017-11-11T05:36:28.699Z,100406.63
2017-11-11T05:38:55.604Z,100395.62
2017-11-11T05:41:22.493Z,100400.14
2017-11-11T05:43:49.443Z,100395.55
2017-11-11T05:46:16.393Z,100389.63
2017-11-11T05:48:43.303Z,100394.76
2017-11-11T05:51:10.190Z,100391.18
2017-11-11T05:53:37.069Z,100385.33
2017-11-11T05:56:03.973Z,100385.77
2017-11-11T05:58:30.936Z,100386.73
2017-11-11T06:00:57.849Z,100376.47
2017-11-11T06:03:24.786Z,100385.70
2017-11-11T06:05:51.769Z,100377.23
2017-11-11T06:08:18.682Z,100366.36
2017-11-11T06:10:45.615Z,100372.13
2017-11-11T06:13:12.553Z,100374.39
2017-11-11T06:15:39.522Z,100357.61
2017-11-11T06:18:06.505Z,100350.38
2017-11-11T06:20:33.453Z,100354.56
2017-11-11T06:23:00.441Z,100355.68
2017-11-11T06:25:27.380Z,100350.95
2017-11-11T06:27:54.281Z,100346.96
2017-11-11T06:30:21.239Z,100344.09
2017-11-11T06:32:48.158Z,100340.81
2017-11-11T06:35:15.837Z,100346.73
2017-11-11T06:37:42.773Z,100349.95
2017-11-11T06:40:10.435Z,100353.73
2017-11-11T06:42:38.068Z,100357.81
2017-11-11T06:45:04.997Z,100349.57
2017-11-11T06:47:31.929Z,100349.19
2017-11-11T06:49:58.843Z,100347.34
2017-11-11T06:52:25.801Z,100353.62
2017-11-11T06:54:52.703Z,100351.06
2017-11-11T06:57:19.618Z,100344.73
2017-11-11T06:59:46.514Z,100334.63
2017-11-11T07:02:13.675Z,100329.55
2017-11-11T07:04:44.954Z,100327.58
2017-11-11T07:07:11.837Z,100321.16
2017-11-11T07:09:38.775Z,100323.08
2017-11-11T07:12:05.761Z,100321.53
2017-11-11T07:14:32.689Z,100317.66
2017-11-11T07:16:59.658Z,100314.63
2017-11-11T07:19:26.872Z,100313.05
2017-11-11T07:21:54.817Z,100313.89
2017-11-11T07:24:21.764Z,100319.29
2017-11-11T07:26:48.705Z,100316.84
2017-11-11T07:29:15.590Z,100313.20
2017-11-11T07:31:43.332Z,100308.79
2017-11-11T07:34:10.301Z,100311.25
2017-11-11T07:36:37.209Z,100309.74
2017-11-11T07:39:04.153Z,100295.27
2017-11-11T07:41:31.063Z,100298.73
2017-11-11T07:43:58.073Z,100295.49
2017-11-11T07:46:24.996Z,100294.85
2017-11-11T07:48:51.940Z,100298.58
2017-11-11T07:51:18.892Z,100298.13
2017-11-11T07:53:45.841Z,100300.19
2017-11-11T07:56:12.736Z,100295.30
2017-11-11T07:58:39.661Z,100293.89
2017-11-11T08:01:06.586Z,100301.83
2017-11-11T08:03:34.322Z,100300.88
2017-11-11T08:06:01.306Z,100296.45
2017-11-11T08:08:28.255Z,100296.07
2017-11-11T08:10:55.196Z,100302.70
2017-11-11T08:13:22.206Z,100297.07
2017-11-11T08:15:49.144Z,100297.91
2017-11-11T08:18:16.046Z,100295.55
2017-11-11T08:20:42.981Z,100287.58
2017-11-11T08:23:09.892Z,100292.48
2017-11-11T08:25:36.778Z,100295.33
2017-11-11T08:28:03.732Z,100286.47
2017-11-11T08:30:30.663Z,100279.81
2017-11-11T08:32:57.532Z,100273.08
2017-11-11T08:35:24.388Z,100274.13
2017-11-11T08:37:51.246Z,100275.82
2017-11-11T08:40:18.180Z,100266.78
2017-11-11T08:42:45.222Z,100261.17
2017-11-11T08:45:12.344Z,100268.50
2017-11-11T08:47:39.245Z,100263.77
2017-11-11T08:50:06.122Z,100266.83
2017-11-11T08:52:33.024Z,100264.86
2017-11-11T08:54:59.963Z,100261.36
2017-11-11T08:57:27.299Z,100264.60
2017-11-11T08:59:54.177Z,100256.03
2017-11-11T09:02:21.035Z,100254.70
2017-11-11T09:04:47.961Z,100260.81
2017-11-11T09:07:14.873Z,100258.43
2017-11-11T09:09:41.788Z,100253.13
2017-11-11T09:12:08.718Z,100246.45
2017-11-11T09:14:36.339Z,100254.16
2017-11-11T09:17:03.246Z,100247.01
2017-11-11T09:19:30.140Z,100242.50
2017-11-11T09:21:57.029Z,100240.53
2017-11-11T09:24:24.002Z,100248.47
2017-11-11T09:26:50.895Z,100243.33
2017-11-11T09:29:19.019Z,100242.11
2017-11-11T09:31:45.945Z,100232.31
2017-11-11T09:34:12.904Z,100225.88
2017-11-11T09:36:39.924Z,100225.23
2017-11-11T09:39:06.818Z,100220.65
2017-11-11T09:41:33.742Z,100220.76
2017-11-11T09:44:01.454Z,100220.20
2017-11-11T09:46:28.389Z,100214.80
2017-11-11T09:48:56.055Z,100210.78
2017-11-11T09:51:22.941Z,100211.26
2017-11-11T09:53:49.841Z,100204.22
2017-11-11T09:56:16.772Z,100200.08
2017-11-11T09:58:43.756Z,100194.05
2017-11-11T10:01:11.029Z,100183.20
2017-11-11T10:03:38.035Z,100185.44
2017-11-11T10:06:05.748Z,100185.38
2017-11-11T10:08:32.693Z,100170.75
2017-11-11T10:10:59.618Z,100170.78
2017-11-11T10:13:26.545Z,100164.16
2017-11-11T10:15:54.252Z,100164.20
2017-11-11T10:18:22.081Z,100161.36
2017-11-11T10:20:49.817Z,100152.78
2017-11-11T10:23:16.759Z,100155.96
2017-11-11T10:25:43.662Z,100154.25
2017-11-11T10:28:10.612Z,100158.91
2017-11-11T10:30:37.517Z,100150.78
2017-11-11T10:33:04.492Z,100144.87
2017-11-11T10:35:31.493Z,100141.31
2017-11-11T10:37:58.418Z,100142.77
2017-11-11T10:40:25.354Z,100129.75
2017-11-11T10:42:52.282Z,100122.40
2017-11-11T10:45:19.323Z,100115.40
2017-11-11T10:47:46.239Z,100117.66
2017-11-11T10:50:13.171Z,100121.57
2017-11-11T10:52:40.077Z,100106.13
2017-11-11T10:55:07.012Z,100104.14
2017-11-11T10:57:33.933Z,100103.22
2017-11-11T11:00:00.850Z,100095.31
2017-11-11T11:02:28.549Z,100093.03
2017-11-11T11:04:55.489Z,100094.52
2017-11-11T11:07:22.438Z,100085.56
2017-11-11T11:09:49.346Z,100093.41
2017-11-11T11:12:17.023Z,100083.76
2017-11-11T11:14:43.984Z,100074.11
2017-11-11T11:17:10.929Z,100070.67
2017-11-11T11:19:42.702Z,100064.70
2017-11-11T11:22:09.729Z,100061.80
2017-11-11T11:24:39.909Z,100061.52
2017-11-11T11:27:07.557Z,100053.83
2017-11-11T11:29:34.452Z,100045.19
2017-11-11T11:32:01.357Z,100038.72
2017-11-11T11:34:28.283Z,100034.30
2017-11-11T11:36:55.181Z,100038.93
2017-11-11T11:39:22.095Z,100031.58
2017-11-11T11:41:48.941Z,100031.91
2017-11-11T11:44:16.520Z,100030.44
2017-11-11T11:46:44.149Z,100029.63
2017-11-11T11:49:11.026Z,100025.38
2017-11-11T11:51:37.891Z,100025.97
2017-11-11T11:54:04.755Z,100012.83
2017-11-11T11:56:31.641Z,100014.30
2017-11-11T11:58:59.286Z,100011.17
2017-11-11T12:01:26.141Z,100007.04
2017-11-11T12:03:52.985Z,100004.68
2017-11-11T12:06:19.862Z,99995.73
2017-11-11T12:08:46.708Z,100001.31
2017-11-11T12:11:13.542Z,100001.80
2017-11-11T12:13:40.391Z,100002.64
2017-11-11T12:16:07.984Z,99995.33
2017-11-11T12:18:34.875Z,100002.63
2017-11-11T12:21:01.752Z,99993.16
2017-11-11T12:23:28.597Z,100000.31
2017-11-11T12:25:55.458Z,99996.28
2017-11-11T12:28:22.337Z,99994.57
2017-11-11T12:30:49.209Z,99991.28
2017-11-11T12:33:16.089Z,99985.05
2017-11-11T12:35:43.016Z,99984.05
2017-11-11T12:38:09.941Z,99984.28
2017-11-11T12:40:36.870Z,99978.39
2017-11-11T12:43:03.925Z,99972.19
2017-11-11T12:45:30.870Z,99969.75
2017-11-11T13:42:46.808Z,99938.72
2017-11-11T13:45:13.688Z,99945.61
2017-11-11T13:47:40.592Z,99943.58
2017-11-11T13:50:08.219Z,99945.36
2017-11-11T13:52:35.085Z,99943.41
2017-11-11T13:55:01.930Z,99936.61
2017-11-11T13:57:28.987Z,99943.27
2017-11-11T13:59:55.922Z,99940.37
2017-11-11T14:02:23.524Z,99936.61
2017-11-11T14:04:50.345Z,99940.15
2017-11-11T14:07:17.236Z,99938.41
2017-11-11T14:09:44.126Z,99935.95
2017-11-11T14:12:15.785Z,99935.98
2017-11-11T14:14:43.202Z,99941.04
2017-11-11T14:17:10.258Z,99939.61
2017-11-11T14:19:37.128Z,99942.58
2017-11-11T14:22:04.024Z,99946.13
2017-11-11T14:24:30.887Z,99947.89
2017-11-11T14:26:58.496Z,99944.41
2017-11-11T14:29:25.441Z,99945.98
2017-11-11T14:31:52.305Z,99948.84
2017-11-11T14:34:19.194Z,99950.27
2017-11-11T14:36:46.288Z,99949.58
2017-11-11T14:39:13.420Z,99953.06
2017-11-11T14:41:40.275Z,99943.15
2017-11-11T14:44:07.991Z,99947.35
2017-11-11T14:46:34.909Z,99947.33
2017-11-11T14:49:01.759Z,99945.35
2017-11-11T14:51:28.599Z,99946.81
2017-11-11T14:53:56.207Z,99948.30
2017-11-11T14:56:23.064Z,99943.92
2017-11-11T14:58:49.947Z,99944.21
2017-11-11T15:01:17.175Z,99942.72
2017-11-11T15:03:44.750Z,99946.16
2017-11-11T15:06:12.442Z,99947.30
2017-11-11T15:08:40.106Z,99945.13
2017-11-11T15:11:07.706Z,99941.92
2017-11-11T15:13:35.365Z,99943.04
2017-11-11T15:16:02.263Z,99938.44
2017-11-11T15:18:29.158Z,99944.04
2017-11-11T15:20:56.042Z,99949.24
2017-11-11T15:23:22.971Z,99951.24
2017-11-11T15:25:49.953Z,99950.41
2017-11-11T15:28:17.568Z,99953.44
2017-11-11T15:30:45.212Z,99951.73
2017-11-11T15:33:13.492Z,99956.06
2017-11-11T15:35:40.795Z,99955.95
2017-11-11T15:38:07.762Z,99957.38
2017-11-11T15:40:36.210Z,99954.19
2017-11-11T15:43:04.357Z,99952.90
2017-11-11T15:45:32.062Z,99955.59
2017-11-11T15:47:58.974Z,99955.19
2017-11-11T15:50:26.397Z,99952.27
2017-11-11T15:52:53.334Z,99953.04
2017-11-11T15:55:20.225Z,99954.36
2017-11-11T15:57:47.537Z,99958.27
2017-11-11T16:00:15.180Z,99967.50
2017-11-11T16:02:42.967Z,99951.27
2017-11-11T16:05:09.839Z,99966.19
2017-11-11T16:07:37.479Z,99966.72
2017-11-11T16:10:05.183Z,99965.52
2017-11-11T16:12:32.427Z,99968.70
2017-11-11T16:15:00.384Z,99973.55
2017-11-11T16:17:27.302Z,99968.81
2017-11-11T16:19:54.183Z,99974.22
2017-11-11T16:22:21.106Z,99975.59
2017-11-11T16:24:48.704Z,99976.73
2017-11-11T16:27:15.592Z,99975.10
2017-11-11T16:29:42.481Z,99976.70
2017-11-11T16:32:09.398Z,99981.88
2017-11-11T16:34:36.263Z,99987.49
2017-11-11T16:37:03.159Z,99991.41
2017-11-11T16:39:29.974Z,99995.84
2017-11-11T16:41:56.971Z,99993.44
2017-11-11T16:44:24.662Z,100006.97
2017-11-11T16:46:51.531Z,99996.89
2017-11-11T16:49:18.400Z,100000.31
2017-11-11T16:51:45.298Z,99995.84
2017-11-11T16:54:12.200Z,99995.08
2017-11-11T16:56:39.102Z,99996.34
2017-11-11T16:59:05.996Z,99999.03
2017-11-11T17:01:32.908Z,100006.47
2017-11-11T17:03:59.813Z,100013.16
2017-11-11T17:06:27.438Z,100016.28
2017-11-11T17:08:54.341Z,100025.28
2017-11-11T17:11:22.060Z,100027.22
2017-11-11T17:13:49.194Z,100027.94
2017-11-11T17:16:16.101Z,100030.94
2017-11-11T17:18:42.989Z,100025.60
2017-11-11T17:21:11.438Z,100037.66
2017-11-11T17:23:38.457Z,100032.90
2017-11-11T17:26:05.334Z,100036.55
2017-11-11T17:28:32.946Z,100037.27
2017-11-11T17:30:59.844Z,100032.12
2017-11-11T17:33:26.696Z,100029.86
2017-11-11T17:35:53.676Z,100031.23
2017-11-11T17:38:20.506Z,100030.97
2017-11-11T17:40:48.013Z,100029.63
2017-11-11T17:43:14.891Z,100041.03
2017-11-11T17:45:42.487Z,100042.02
2017-11-11T17:48:10.112Z,100048.69
2017-11-11T17:50:36.969Z,100042.98
2017-11-11T17:53:03.820Z,100029.17
2017-11-11T17:55:30.699Z,100041.45
2017-11-11T17:57:57.553Z,100037.23
2017-11-11T18:00:24.440Z,100042.05
2017-11-11T18:02:51.467Z,100044.79
2017-11-11T18:05:18.477Z,100047.34
2017-11-11T18:07:45.473Z,100052.61
2017-11-11T18:10:16.407Z,100052.41
2017-11-11T18:12:47.304Z,100057.14
2017-11-11T18:15:14.314Z,100055.64
2017-11-11T18:17:41.395Z,100063.53
2017-11-11T18:20:08.324Z,100062.23
2017-11-11T18:22:35.294Z,100057.69
2017-11-11T18:25:02.279Z,100058.97
2017-11-11T18:30:30.927Z,100067.70
2017-11-11T18:32:58.145Z,100068.23
2017-11-11T18:35:25.817Z,100070.79
2017-11-11T18:37:52.705Z,100075.16
2017-11-11T18:40:19.574Z,100076.55
2017-11-11T18:42:46.442Z,100074.52
2017-11-11T18:45:13.300Z,100080.08
2017-11-11T18:47:40.188Z,100082.08
2017-11-11T18:50:08.367Z,100077.46
2017-11-11T18:52:35.977Z,100082.89
2017-11-11T18:55:02.947Z,100084.36
2017-11-11T18:57:31.673Z,100086.27
2017-11-11T19:00:00.080Z,100079.97
2017-11-11T19:02:28.035Z,100087.97
2017-11-11T19:07:39.479Z,100105.80
2017-11-11T19:10:08.354Z,100107.35
2017-11-11T19:12:35.589Z,100108.67
2017-11-11T19:15:03.825Z,100114.52
2017-11-11T19:17:30.758Z,100115.32
2017-11-11T19:19:58.368Z,100113.94
2017-11-11T19:22:25.332Z,100112.88
2017-11-11T19:24:52.267Z,100120.28
2017-11-11T19:27:19.360Z,100118.53
2017-11-11T19:29:46.340Z,100121.88
2017-11-11T19:32:14.110Z,100129.95
2017-11-11T19:34:41.047Z,100134.58
2017-11-11T19:37:08.161Z,100132.20
2017-11-11T19:39:35.106Z,100140.34
2017-11-11T19:42:02.209Z,100142.20
2017-11-11T19:44:29.140Z,100143.53
2017-11-11T19:46:56.530Z,100149.91
2017-11-11T19:49:23.490Z,100146.58
2017-11-11T19:51:50.514Z,100153.83
2017-11-11T19:54:21.228Z,100160.30
2017-11-11T19:56:53.404Z,100154.50
2017-11-11T19:59:21.231Z,100155.32
2017-11-11T20:01:48.874Z,100149.69
2017-11-11T20:04:16.649Z,100149.16
2017-11-11T20:06:43.923Z,100150.97
2017-11-11T20:09:10.817Z,100147.33
2017-11-11T20:11:39.318Z,100150.16
2017-11-11T20:14:07.955Z,100151.02
2017-11-11T20:16:36.967Z,100143.89
2017-11-11T20:19:05.779Z,100144.34
2017-11-11T20:21:34.283Z,100149.50
2017-11-11T20:24:03.144Z,100152.52
2017-11-11T20:26:31.560Z,100154.47
2017-11-11T20:29:00.629Z,100159.83
2017-11-11T20:31:29.539Z,100166.55
2017-11-11T20:33:58.284Z,100166.26
2017-11-11T20:36:27.629Z,100168.50
2017-11-11T20:38:55.933Z,100172.39
2017-11-11T20:41:25.088Z,100177.09
2017-11-11T20:43:53.645Z,100176.11
2017-11-11T20:46:23.157Z,100178.84
2017-11-11T20:48:51.849Z,100186.14
2017-11-11T20:51:21.095Z,100185.49
2017-11-11T20:54:04.959Z,100182.91
2017-11-11T20:56:34.592Z,100184.99
2017-11-11T20:59:03.172Z,100189.37
2017-11-11T21:01:31.722Z,100191.30
2017-11-11T21:04:00.560Z,100189.78
2017-11-11T21:06:29.102Z,100190.28
2017-11-11T21:08:58.139Z,100193.03
2017-11-11T21:11:26.290Z,100199.41
2017-11-11T21:13:54.223Z,100191.97
2017-11-11T21:16:22.017Z,100195.23
2017-11-11T21:18:50.293Z,100201.84
2017-11-11T21:21:18.561Z,100200.92
2017-11-11T21:23:45.880Z,100198.78
2017-11-11T21:26:13.649Z,100194.80
2017-11-11T21:28:54.106Z,100205.08
2017-11-11T21:31:22.537Z,100197.42
2017-11-11T21:33:49.928Z,100200.72
2017-11-11T21:57:04.626Z,100195.48
2017-11-11T21:59:31.948Z,100190.72
2017-11-11T22:01:59.516Z,100196.41
2017-11-11T22:04:27.315Z,100201.44
2017-11-11T22:06:55.172Z,100202.04
2017-11-11T22:09:22.838Z,100197.73
2017-11-11T22:11:49.826Z,100197.16
2017-11-11T22:14:16.812Z,100199.14
2017-11-11T22:16:45.759Z,100192.95
2017-11-11T22:19:13.860Z,100187.44
2017-11-11T22:24:22.716Z,100195.13
2017-11-11T22:26:55.119Z,100193.66
2017-11-11T22:29:53.229Z,100188.91
2017-11-11T22:32:21.084Z,100190.05
2017-11-11T22:34:53.249Z,100185.16
2017-11-11T22:37:21.926Z,100192.63
2017-11-11T22:39:48.952Z,100186.55
2017-11-11T22:42:15.855Z,100187.62
2017-11-11T22:44:49.141Z,100192.08
2017-11-11T22:47:16.335Z,100189.35
2017-11-11T22:49:43.399Z,100192.50
2017-11-11T22:52:12.386Z,100191.84
2017-11-11T22:54:39.444Z,100198.97
2017-11-11T22:57:16.323Z,100195.86
2017-11-11T22:59:43.742Z,100199.31
2017-11-11T23:02:11.484Z,100192.25
2017-11-11T23:04:52.589Z,100195.66
2017-11-11T23:10:21.100Z,100196.27
2017-11-11T23:15:22.449Z,100189.47
2017-11-11T23:17:51.407Z,100186.93
2017-11-11T23:20:18.388Z,100184.56
2017-11-11T23:22:45.328Z,100185.89
2017-11-11T23:25:12.164Z,100187.22
2017-11-11T23:27:39.054Z,100183.58
2017-11-11T23:30:08.108Z,100188.63
2017-11-11T23:32:35.071Z,100190.59
2017-11-11T23:35:02.766Z,100187.63
2017-11-11T23:37:29.623Z,100183.28
2017-11-11T23:39:56.492Z,100185.91
2017-11-11T23:42:23.345Z,100186.25
2017-11-11T23:44:50.296Z,100173.09
2017-11-11T23:47:17.169Z,100173.01
2017-11-11T23:49:44.022Z,100164.80
2017-11-11T23:52:10.888Z,100159.09
2017-11-11T23:54:38.518Z,100158.39
2017-11-11T23:57:11.181Z,100164.70
2017-11-11T23:59:38.232Z,100165.42
